Time;durP1;ratioP1;P1;durP2;ratioP2;P2;SDS_P1;SDS_P2;PMS_P1;PMS_P2;Temp;Humidity;BMP_temperature;BMP_pressure;BME280_temperature;BME280_humidity;BME280_pressure;Samples;Min_cycle;Max_cycle;Signal;HPM_P1;HPM_P2
2021/10/09 00:02:01;;;;;;;21.83;17.07;;;10.70;99.90;;;;;;5024615;28;20517;-79
2021/10/09 00:04:28;;;;;;;21.17;16.17;;;10.60;99.90;;;;;;5028848;28;20521;-79
2021/10/09 00:06:55;;;;;;;22.33;16.73;;;10.60;99.90;;;;;;5023263;28;20897;-79
2021/10/09 00:09:23;;;;;;;26.70;18.10;;;10.50;99.90;;;;;;5022086;28;20580;-79
2021/10/09 00:11:50;;;;;;;27.03;18.10;;;10.60;99.90;;;;;;5022057;28;20449;-79
2021/10/09 00:14:17;;;;;;;25.80;17.23;;;10.50;99.90;;;;;;5021620;28;20537;-80
2021/10/09 00:16:44;;;;;;;25.27;17.50;;;10.50;99.90;;;;;;5021943;28;20465;-80
2021/10/09 00:19:12;;;;;;;25.47;17.80;;;10.40;99.90;;;;;;5020083;28;20845;-80
2021/10/09 00:21:43;;;;;;;24.63;17.63;;;10.40;99.90;;;;;;5019515;28;20524;-81
2021/10/09 00:24:10;;;;;;;24.83;16.30;;;10.40;99.90;;;;;;5022406;28;20408;-80
2021/10/09 00:26:39;;;;;;;24.10;18.10;;;10.50;99.90;;;;;;5021522;28;20457;-80
2021/10/09 00:29:06;;;;;;;23.97;17.27;;;10.40;99.90;;;;;;5021929;28;20479;-80
2021/10/09 00:31:33;;;;;;;20.40;16.40;;;10.40;99.90;;;;;;5021772;28;20543;-80
2021/10/09 00:34:00;;;;;;;25.60;18.13;;;10.30;99.90;;;;;;5009550;28;20541;-80
2021/10/09 00:36:26;;;;;;;24.70;17.53;;;10.30;99.90;;;;;;5020209;28;20897;-80
2021/10/09 00:38:54;;;;;;;24.63;17.90;;;10.30;99.90;;;;;;5021491;28;20475;-80
2021/10/09 00:41:21;;;;;;;25.40;17.60;;;10.20;99.90;;;;;;5021521;28;20515;-80
2021/10/09 00:43:49;;;;;;;26.50;17.70;;;10.10;99.90;;;;;;5021277;28;20447;-80
2021/10/09 00:46:16;;;;;;;25.40;17.30;;;10.10;99.90;;;;;;5016783;28;20455;-80
2021/10/09 00:48:43;;;;;;;22.37;16.70;;;10.00;99.90;;;;;;5013792;28;20451;-80
2021/10/09 00:51:10;;;;;;;24.20;17.00;;;10.10;99.90;;;;;;5021613;28;20492;-80
2021/10/09 00:53:40;;;;;;;24.10;17.33;;;10.10;99.90;;;;;;5012086;28;20958;-80
2021/10/09 00:56:08;;;;;;;21.20;16.57;;;10.10;99.90;;;;;;5020762;28;20420;-81
2021/10/09 00:58:39;;;;;;;22.27;16.50;;;10.10;99.90;;;;;;5020535;28;20519;-80
2021/10/09 01:01:07;;;;;;;24.07;16.97;;;10.10;99.90;;;;;;5021145;28;20769;-80
2021/10/09 01:03:33;;;;;;;24.07;15.90;;;10.10;99.90;;;;;;5021404;28;20475;-80
2021/10/09 01:06:00;;;;;;;24.43;16.90;;;10.00;99.90;;;;;;5021814;28;20424;-80
2021/10/09 01:08:27;;;;;;;23.50;16.60;;;10.00;99.90;;;;;;5028049;28;20460;-80
2021/10/09 01:10:54;;;;;;;23.77;17.47;;;10.00;99.90;;;;;;5025422;28;20423;-79
2021/10/09 01:13:21;;;;;;;21.83;15.20;;;10.00;99.90;;;;;;5026735;28;20428;-80
2021/10/09 01:15:48;;;;;;;24.33;16.70;;;9.90;99.90;;;;;;5020587;28;20525;-80
2021/10/09 01:18:17;;;;;;;21.53;15.60;;;9.90;99.90;;;;;;5020168;28;20469;-80
2021/10/09 01:20:51;;;;;;;23.53;17.30;;;9.90;99.90;;;;;;5020395;28;20464;-80
2021/10/09 01:23:18;;;;;;;20.87;15.33;;;9.90;99.90;;;;;;5024297;28;20787;-80
2021/10/09 01:25:46;;;;;;;23.90;15.80;;;9.90;99.90;;;;;;5027283;28;20432;-79
2021/10/09 01:28:13;;;;;;;22.83;16.70;;;9.90;99.90;;;;;;5003167;28;20953;-80
2021/10/09 01:30:40;;;;;;;26.33;17.17;;;9.90;99.90;;;;;;5018616;28;20424;-80
2021/10/09 01:33:07;;;;;;;26.90;16.50;;;9.90;99.90;;;;;;5023201;28;20465;-80
2021/10/09 01:35:47;;;;;;;22.40;16.40;;;9.80;99.90;;;;;;5004465;28;20465;-80
2021/10/09 01:38:15;;;;;;;22.70;17.03;;;9.80;99.90;;;;;;5003823;28;20452;-80
2021/10/09 01:40:42;;;;;;;23.53;16.47;;;9.80;99.90;;;;;;5016551;28;20463;-80
2021/10/09 01:43:10;;;;;;;22.50;15.60;;;9.70;99.90;;;;;;5021964;28;20428;-80
2021/10/09 01:45:39;;;;;;;23.00;15.90;;;9.70;99.90;;;;;;5023239;28;20931;-80
2021/10/09 01:48:05;;;;;;;26.23;15.87;;;9.70;99.90;;;;;;5023719;28;20455;-80
2021/10/09 01:50:32;;;;;;;22.40;15.60;;;9.70;99.90;;;;;;5023884;28;20437;-80
2021/10/09 01:52:59;;;;;;;23.30;15.20;;;9.60;99.90;;;;;;5024739;28;20456;-80
2021/10/09 01:55:27;;;;;;;23.27;16.67;;;9.60;99.90;;;;;;5023763;28;20459;-80
2021/10/09 01:57:55;;;;;;;23.60;16.80;;;9.60;99.90;;;;;;5023168;28;20519;-79
2021/10/09 02:00:22;;;;;;;25.90;15.93;;;9.60;99.90;;;;;;5004667;28;20456;-81
2021/10/09 02:02:49;;;;;;;24.17;15.70;;;9.50;99.90;;;;;;5003410;28;20523;-80
2021/10/09 02:05:16;;;;;;;26.10;16.38;;;9.50;99.90;;;;;;5004176;28;20530;-80
2021/10/09 02:07:43;;;;;;;22.07;14.97;;;9.50;99.90;;;;;;5011400;28;20223;-80
2021/10/09 02:10:14;;;;;;;20.60;15.07;;;9.50;99.90;;;;;;5025945;28;20982;-80
2021/10/09 02:12:42;;;;;;;21.43;15.30;;;9.50;99.90;;;;;;5028069;28;20424;-79
2021/10/09 02:15:12;;;;;;;27.50;17.27;;;9.40;99.90;;;;;;5027865;28;20473;-80
2021/10/09 02:26:12;;;;;;;20.97;15.47;;;9.40;99.90;;;;;;5001203;28;20461;-80
2021/10/09 02:28:40;;;;;;;24.20;15.90;;;9.30;99.90;;;;;;5003518;28;20536;-78
2021/10/09 02:31:07;;;;;;;21.70;17.70;;;9.30;99.90;;;;;;5005428;28;20780;-79
2021/10/09 02:33:34;;;;;;;23.93;16.60;;;9.30;99.90;;;;;;5008616;28;20543;-79
2021/10/09 02:36:00;;;;;;;21.05;15.00;;;9.30;99.90;;;;;;5022830;28;20462;-79
2021/10/09 02:38:27;;;;;;;20.80;15.60;;;9.30;99.90;;;;;;5003962;28;20230;-79
2021/10/09 02:40:54;;;;;;;19.93;15.10;;;9.30;99.90;;;;;;5013991;28;20481;-78
2021/10/09 02:43:21;;;;;;;22.27;14.80;;;9.40;99.90;;;;;;5003932;28;20512;-79
2021/10/09 02:45:49;;;;;;;23.70;15.83;;;9.40;99.90;;;;;;5003878;28;21050;-78
2021/10/09 02:48:17;;;;;;;26.03;16.33;;;9.50;99.90;;;;;;5044364;23;21386;-79
2021/10/09 02:50:44;;;;;;;21.10;15.10;;;9.50;99.90;;;;;;5051124;28;20443;-77
2021/10/09 02:53:11;;;;;;;23.20;13.90;;;9.50;99.90;;;;;;5035906;28;20472;-78
2021/10/09 02:55:38;;;;;;;19.90;15.17;;;9.50;99.90;;;;;;5037730;28;20456;-78
2021/10/09 02:58:05;;;;;;;19.83;14.20;;;9.50;99.90;;;;;;5038204;28;20914;-79
2021/10/09 03:00:32;;;;;;;23.83;14.93;;;9.40;99.90;;;;;;5039049;28;20462;-79
2021/10/09 03:03:00;;;;;;;20.83;14.77;;;9.30;99.90;;;;;;5034567;28;20467;-79
2021/10/09 03:05:27;;;;;;;22.97;15.67;;;9.30;99.90;;;;;;5017898;28;20439;-79
2021/10/09 03:07:54;;;;;;;23.17;16.37;;;9.30;99.90;;;;;;5018202;28;20434;-78
2021/10/09 03:10:21;;;;;;;22.70;14.90;;;9.20;99.90;;;;;;5033730;28;20505;-79
2021/10/09 03:12:48;;;;;;;18.77;14.47;;;9.20;99.90;;;;;;5037403;28;20487;-79
2021/10/09 03:15:15;;;;;;;21.80;15.38;;;9.20;99.90;;;;;;5030306;28;20428;-79
2021/10/09 03:17:42;;;;;;;22.67;16.87;;;9.10;99.90;;;;;;5007248;28;20217;-79
2021/10/09 03:20:12;;;;;;;23.27;15.90;;;9.00;99.90;;;;;;4998745;28;20468;-79
2021/10/09 03:22:40;;;;;;;22.90;15.50;;;9.10;99.90;;;;;;4998398;28;20431;-79
2021/10/09 03:25:08;;;;;;;21.27;15.53;;;9.00;99.90;;;;;;5007377;28;20458;-79
2021/10/09 03:27:35;;;;;;;23.13;16.63;;;9.00;99.90;;;;;;5038041;28;20429;-79
2021/10/09 03:30:02;;;;;;;19.50;14.40;;;9.00;99.90;;;;;;5020106;28;20218;-79
2021/10/09 03:32:31;;;;;;;24.17;16.20;;;9.00;99.90;;;;;;5013969;28;20301;-78
2021/10/09 03:34:58;;;;;;;20.70;15.00;;;9.00;99.90;;;;;;5033817;28;20448;-78
2021/10/09 03:37:27;;;;;;;21.50;16.20;;;9.00;99.90;;;;;;5037509;28;20209;-79
2021/10/09 03:39:55;;;;;;;20.00;15.77;;;8.90;99.90;;;;;;5028651;28;20484;-79
2021/10/09 03:42:25;;;;;;;24.20;16.00;;;8.90;99.90;;;;;;5022006;28;20471;-78
2021/10/09 03:44:55;;;;;;;19.80;14.82;;;8.90;99.90;;;;;;5017847;28;20418;-79
2021/10/09 03:47:27;;;;;;;23.63;16.90;;;8.80;99.90;;;;;;5017507;28;20296;-79
2021/10/09 03:49:55;;;;;;;24.53;16.43;;;8.80;99.90;;;;;;5017284;28;20252;-79
2021/10/09 03:55:09;;;;;;;24.13;15.03;;;8.80;99.90;;;;;;5037651;28;20278;-79
2021/10/09 03:57:36;;;;;;;22.73;16.15;;;8.80;99.90;;;;;;5039641;28;20407;-79
2021/10/09 04:00:05;;;;;;;21.70;15.33;;;8.80;99.90;;;;;;5037680;28;20239;-79
2021/10/09 04:02:32;;;;;;;23.33;15.40;;;8.80;99.90;;;;;;5021652;28;20431;-79
2021/10/09 04:04:59;;;;;;;20.83;14.85;;;8.80;99.90;;;;;;5016443;28;20181;-78
2021/10/09 04:07:25;;;;;;;26.60;16.40;;;8.70;99.90;;;;;;5006759;28;20559;-78
2021/10/09 04:09:52;;;;;;;24.65;16.00;;;8.70;99.90;;;;;;4997392;28;20479;-80
2021/10/09 04:12:21;;;;;;;22.20;14.90;;;8.70;99.90;;;;;;5008998;28;20696;-79
2021/10/09 04:14:48;;;;;;;19.98;14.35;;;8.70;99.90;;;;;;5017055;28;20431;-80
2021/10/09 04:17:15;;;;;;;23.13;14.60;;;8.70;99.90;;;;;;5017501;28;20213;-79
2021/10/09 04:19:42;;;;;;;23.25;15.10;;;8.50;99.90;;;;;;5017290;28;20451;-79
2021/10/09 04:22:09;;;;;;;20.70;15.70;;;8.70;99.90;;;;;;5019173;28;20206;-79
2021/10/09 04:24:36;;;;;;;21.02;15.93;;;8.70;99.90;;;;;;5017226;28;20299;-79
2021/10/09 04:27:03;;;;;;;25.35;14.75;;;8.60;99.90;;;;;;5016931;28;20250;-79
2021/10/09 04:29:31;;;;;;;23.50;15.95;;;8.60;99.90;;;;;;5016980;28;20232;-79
2021/10/09 04:31:58;;;;;;;22.52;14.55;;;8.50;99.90;;;;;;5003953;28;20213;-79
2021/10/09 04:34:27;;;;;;;21.37;16.10;;;8.50;99.90;;;;;;5013842;28;20668;-79
2021/10/09 04:36:55;;;;;;;20.20;15.25;;;8.50;99.90;;;;;;5005814;28;20853;-79
2021/10/09 04:39:22;;;;;;;22.67;15.63;;;8.30;99.90;;;;;;4997527;28;20234;-79
2021/10/09 04:41:49;;;;;;;27.85;16.02;;;8.50;99.90;;;;;;5007903;28;20227;-79
2021/10/09 04:44:17;;;;;;;21.23;15.93;;;8.40;99.90;;;;;;5016775;28;20215;-79
2021/10/09 04:46:45;;;;;;;24.42;15.70;;;8.00;99.90;;;;;;5017639;28;20216;-79
2021/10/09 04:49:12;;;;;;;24.83;16.35;;;8.40;99.90;;;;;;5031298;28;20323;-78
2021/10/09 04:51:39;;;;;;;23.98;15.98;;;8.20;99.90;;;;;;5027816;28;20303;-79
2021/10/09 04:54:05;;;;;;;21.92;14.38;;;8.40;99.90;;;;;;5017954;28;20288;-79
2021/10/09 04:56:32;;;;;;;21.10;14.05;;;8.40;99.90;;;;;;5017792;28;20300;-79
2021/10/09 04:58:59;;;;;;;20.83;14.40;;;8.50;99.90;;;;;;5015949;28;20226;-79
2021/10/09 05:01:26;;;;;;;21.25;15.05;;;8.40;99.90;;;;;;5017242;28;20232;-79
2021/10/09 05:03:54;;;;;;;21.67;14.15;;;8.40;99.90;;;;;;5035122;28;20673;-79
2021/10/09 05:06:21;;;;;;;21.15;15.02;;;8.10;99.90;;;;;;5021147;28;20204;-79
2021/10/09 05:08:48;;;;;;;21.70;14.80;;;8.40;99.90;;;;;;5021097;28;20235;-79
2021/10/09 05:11:17;;;;;;;25.52;15.77;;;8.30;99.90;;;;;;5020717;28;20232;-80
2021/10/09 05:13:44;;;;;;;20.98;14.73;;;8.30;99.90;;;;;;5019014;28;20215;-79
2021/10/09 05:16:11;;;;;;;17.83;13.93;;;8.30;99.90;;;;;;5018281;28;20294;-79
2021/10/09 05:18:38;;;;;;;20.75;13.95;;;8.40;99.90;;;;;;5039761;28;20319;-78
2021/10/09 05:21:07;;;;;;;22.90;13.85;;;8.50;99.90;;;;;;5001511;28;20222;-79
2021/10/09 05:23:34;;;;;;;19.35;14.40;;;8.40;99.90;;;;;;5016594;28;20642;-79
2021/10/09 05:26:01;;;;;;;21.65;14.70;;;8.50;99.90;;;;;;5021189;28;20300;-79
2021/10/09 05:28:35;;;;;;;21.13;15.30;;;8.20;99.90;;;;;;5006271;28;20253;-79
2021/10/09 05:31:02;;;;;;;21.65;15.52;;;8.40;99.90;;;;;;5034234;28;20688;-79
2021/10/09 05:33:38;;;;;;;18.90;14.20;;;8.30;99.90;;;;;;5028939;28;20228;-79
2021/10/09 05:36:07;;;;;;;24.00;16.00;;;8.10;99.90;;;;;;5003190;28;20281;-79
2021/10/09 05:38:34;;;;;;;21.13;14.68;;;8.30;99.90;;;;;;5001249;28;20221;-79
2021/10/09 05:41:01;;;;;;;20.02;13.98;;;8.40;99.90;;;;;;5001101;28;20304;-79
2021/10/09 05:43:30;;;;;;;22.60;14.80;;;8.30;99.90;;;;;;5012988;28;20210;-79
2021/10/09 05:45:57;;;;;;;19.80;14.10;;;8.40;99.90;;;;;;5036606;28;20452;-78
2021/10/09 05:48:24;;;;;;;21.90;14.15;;;8.20;99.90;;;;;;5038575;28;20480;-78
2021/10/09 05:50:56;;;;;;;23.10;14.23;;;8.20;99.90;;;;;;5024718;28;20265;-79
2021/10/09 05:56:16;;;;;;;20.48;14.85;;;8.20;99.90;;;;;;4992235;28;20205;-79
2021/10/09 05:58:50;;;;;;;20.73;14.03;;;8.30;99.90;;;;;;5005353;28;20221;-79
2021/10/09 06:32:08;;;;;;;23.45;15.65;;;8.30;99.90;;;;;;5026437;28;20204;-78
2021/10/09 06:48:54;;;;;;;24.52;16.63;;;8.60;99.90;;;;;;5010856;28;20955;-79
2021/10/09 06:59:37;;;;;;;23.70;17.63;;;9.00;99.90;;;;;;5020393;28;21081;-82
2021/10/09 07:02:04;;;;;;;22.73;15.60;;;9.10;99.90;;;;;;5018774;28;20459;-80
2021/10/09 07:04:31;;;;;;;23.93;17.30;;;9.10;99.90;;;;;;5019609;28;20234;-80
2021/10/09 07:07:01;;;;;;;20.97;17.13;;;9.20;99.90;;;;;;5027981;28;20459;-79
2021/10/09 07:09:28;;;;;;;29.30;17.00;;;9.30;99.90;;;;;;5033653;28;20852;-76
2021/10/09 07:11:55;;;;;;;27.50;19.10;;;9.40;99.90;;;;;;5031634;28;20419;-79
2021/10/09 07:14:22;;;;;;;23.90;17.50;;;9.50;99.90;;;;;;5040581;28;20537;-80
2021/10/09 07:16:50;;;;;;;24.50;17.57;;;9.70;99.90;;;;;;5038129;28;20220;-80
2021/10/09 07:19:18;;;;;;;26.90;16.60;;;9.90;99.90;;;;;;5018757;28;20451;-80
2021/10/09 07:21:44;;;;;;;26.93;17.73;;;10.00;99.90;;;;;;5035155;28;20484;-81
2021/10/09 07:24:11;;;;;;;21.27;16.97;;;10.10;99.90;;;;;;5038145;28;20452;-80
2021/10/09 07:26:38;;;;;;;20.73;17.10;;;10.10;99.90;;;;;;5038573;28;20441;-83
2021/10/09 07:29:05;;;;;;;25.90;16.90;;;10.10;99.90;;;;;;5039094;28;20468;-81
2021/10/09 07:31:31;;;;;;;30.97;18.67;;;10.20;99.90;;;;;;5037950;28;20456;-81
2021/10/09 07:34:00;;;;;;;24.73;17.97;;;10.40;99.90;;;;;;5029911;28;20876;-81
2021/10/09 07:36:28;;;;;;;21.03;16.13;;;10.50;99.90;;;;;;5018393;28;20443;-81
2021/10/09 07:38:55;;;;;;;31.23;19.30;;;10.50;99.90;;;;;;5018243;28;20552;-80
2021/10/09 07:41:22;;;;;;;23.07;18.07;;;10.40;99.90;;;;;;5018528;28;20975;-81
2021/10/09 07:43:49;;;;;;;23.00;16.73;;;10.40;99.90;;;;;;5017898;28;20452;-79
2021/10/09 07:46:16;;;;;;;22.23;16.67;;;10.40;99.90;;;;;;5019035;28;20548;-80
2021/10/09 07:48:42;;;;;;;37.10;23.23;;;10.60;99.90;;;;;;5029610;28;21058;-80
2021/10/09 07:51:10;;;;;;;24.20;17.90;;;10.60;99.90;;;;;;5038314;28;20888;-80
2021/10/09 07:53:37;;;;;;;26.73;16.87;;;10.80;99.90;;;;;;5037898;28;20903;-80
2021/10/09 07:56:04;;;;;;;22.80;17.37;;;10.90;99.90;;;;;;5037590;28;20523;-80
2021/10/09 07:58:31;;;;;;;24.57;16.40;;;10.90;99.90;;;;;;5038283;28;20491;-80
2021/10/09 08:00:58;;;;;;;24.33;16.70;;;11.00;99.90;;;;;;5037534;28;20523;-80
2021/10/09 08:03:25;;;;;;;26.83;18.30;;;11.10;99.90;;;;;;5048301;28;20460;-79
2021/10/09 08:05:53;;;;;;;23.93;17.00;;;11.10;99.90;;;;;;5038874;28;20811;-80
2021/10/09 08:08:21;;;;;;;25.53;19.63;;;11.30;99.90;;;;;;5036250;28;20451;-80
2021/10/09 08:10:48;;;;;;;23.27;16.87;;;11.30;99.90;;;;;;5038962;28;20438;-79
2021/10/09 08:13:15;;;;;;;22.03;15.63;;;11.30;99.90;;;;;;5037270;28;20909;-79
2021/10/09 08:15:43;;;;;;;26.40;18.13;;;11.40;99.90;;;;;;5035835;28;20802;-79
2021/10/09 08:18:09;;;;;;;24.40;15.30;;;11.50;99.90;;;;;;5034095;28;20453;-78
2021/10/09 08:20:37;;;;;;;24.77;17.00;;;11.50;99.90;;;;;;5037326;28;20808;-78
2021/10/09 08:23:06;;;;;;;26.03;16.33;;;11.40;99.90;;;;;;5036728;28;20561;-78
2021/10/09 08:36:39;;;;;;;20.00;15.87;;;11.70;99.90;;;;;;5044540;28;20402;-81
2021/10/09 08:39:08;;;;;;;27.93;16.30;;;11.80;99.90;;;;;;5038945;28;20483;-84
2021/10/09 08:41:36;;;;;;;27.17;17.30;;;12.00;99.90;;;;;;5041022;28;20478;-87
2021/10/09 08:44:03;;;;;;;25.03;17.83;;;12.00;99.90;;;;;;5035365;28;20448;-84
2021/10/09 08:46:30;;;;;;;22.23;16.10;;;12.10;99.90;;;;;;5017983;28;20428;-84
2021/10/09 08:48:57;;;;;;;22.00;14.90;;;12.20;99.90;;;;;;5018850;28;20903;-83
2021/10/09 08:51:25;;;;;;;25.50;16.13;;;12.30;99.90;;;;;;5025058;23;20860;-80
2021/10/09 08:53:54;;;;;;;24.03;15.70;;;12.30;99.90;;;;;;4996580;28;20510;-79
2021/10/09 08:56:32;;;;;;;27.63;16.80;;;12.30;99.90;;;;;;4998391;28;20922;-79
2021/10/09 08:59:16;;;;;;;23.63;16.87;;;12.20;99.90;;;;;;4995342;28;20444;-78
2021/10/09 09:01:52;;;;;;;21.30;15.67;;;12.30;99.90;;;;;;4991012;28;20490;-77
2021/10/09 09:04:34;;;;;;;23.20;17.20;;;12.50;99.90;;;;;;4997426;28;20448;-77
2021/10/09 09:33:04;;;;;;;21.80;14.60;;;13.20;99.90;;;;;;4976449;28;20743;-80
2021/10/09 09:35:52;;;;;;;20.87;17.27;;;13.00;99.90;;;;;;4993109;28;20509;-80
2021/10/09 09:41:00;;;;;;;23.47;16.80;;;13.00;99.90;;;;;;4997578;28;20463;-82
2021/10/09 09:43:39;;;;;;;22.73;16.50;;;13.10;99.90;;;;;;5004765;28;20448;-81
2021/10/09 09:46:11;;;;;;;21.57;17.73;;;13.20;99.90;;;;;;4995671;28;20533;-80
2021/10/09 09:48:41;;;;;;;22.57;16.50;;;13.30;99.90;;;;;;5004824;28;20466;-80
2021/10/09 09:51:09;;;;;;;17.83;13.17;;;13.40;99.90;;;;;;5004218;28;20549;-80
2021/10/09 09:53:37;;;;;;;22.83;15.90;;;13.40;99.90;;;;;;4998646;28;20520;-79
2021/10/09 09:56:05;;;;;;;24.40;15.93;;;13.40;99.90;;;;;;4993704;28;20530;-80
2021/10/09 09:58:37;;;;;;;21.73;15.93;;;13.50;99.90;;;;;;5004093;28;20433;-79
2021/10/09 10:01:06;;;;;;;22.13;15.30;;;13.60;99.90;;;;;;5000776;28;20482;-78
2021/10/09 10:03:34;;;;;;;19.00;15.90;;;13.80;99.90;;;;;;4999349;28;20483;-79
2021/10/09 10:06:02;;;;;;;19.17;15.33;;;13.80;99.90;;;;;;4999866;28;20429;-79
2021/10/09 10:08:30;;;;;;;22.43;15.73;;;13.90;99.90;;;;;;4999688;28;20425;-80
2021/10/09 10:10:58;;;;;;;21.53;15.13;;;13.90;99.90;;;;;;4999850;28;20992;-78
2021/10/09 10:13:29;;;;;;;20.07;13.67;;;14.00;99.90;;;;;;4998840;28;20419;-79
2021/10/09 10:15:56;;;;;;;21.23;13.83;;;14.00;99.90;;;;;;4998463;28;20462;-79
2021/10/09 10:18:49;;;;;;;21.00;15.93;;;14.00;99.90;;;;;;4998934;28;20444;-79
2021/10/09 10:21:18;;;;;;;20.50;16.00;;;14.00;99.90;;;;;;5000824;28;20484;-79
2021/10/09 10:23:46;;;;;;;19.10;16.20;;;14.10;99.90;;;;;;4984160;28;20452;-79
2021/10/09 10:26:28;;;;;;;25.20;12.97;;;14.20;99.90;;;;;;4981044;28;20503;-78
2021/10/09 10:29:25;;;;;;;21.17;13.63;;;14.30;99.90;;;;;;4980561;28;20497;-79
2021/10/09 10:32:09;;;;;;;18.00;13.53;;;14.40;99.90;;;;;;4961627;29;20474;-78
2021/10/09 10:34:36;;;;;;;18.20;13.20;;;14.50;99.90;;;;;;4992847;28;20471;-79
2021/10/09 10:37:04;;;;;;;17.70;13.10;;;14.70;99.90;;;;;;4979227;28;20469;-80
2021/10/09 10:39:40;;;;;;;17.60;14.03;;;14.80;99.90;;;;;;4986656;28;20517;-79
2021/10/09 10:42:25;;;;;;;17.60;12.30;;;14.90;99.90;;;;;;5005331;28;20475;-79
2021/10/09 10:45:08;;;;;;;17.50;12.83;;;15.00;99.90;;;;;;5010046;28;20445;-78
2021/10/09 10:48:05;;;;;;;20.20;12.87;;;15.10;99.90;;;;;;5000341;28;20442;-79
2021/10/09 10:57:16;;;;;;;15.10;10.60;;;15.20;99.90;;;;;;4988981;28;20429;-79
2021/10/09 10:59:49;;;;;;;15.47;11.37;;;15.30;99.90;;;;;;4997131;28;20461;-79
2021/10/09 11:02:18;;;;;;;18.47;12.43;;;15.30;99.90;;;;;;4996930;28;20471;-78
2021/10/09 11:04:46;;;;;;;16.97;12.87;;;15.40;99.90;;;;;;4997691;28;20486;-79
2021/10/09 11:07:14;;;;;;;17.83;11.10;;;15.40;99.90;;;;;;4993688;28;20431;-78
2021/10/09 11:09:43;;;;;;;14.60;11.10;;;15.40;99.90;;;;;;5000756;28;20462;-78
2021/10/09 11:12:26;;;;;;;12.07;10.07;;;15.60;99.90;;;;;;4998367;28;21002;-78
2021/10/09 11:15:01;;;;;;;16.80;11.17;;;15.70;99.90;;;;;;4999147;28;20467;-79
2021/10/09 11:17:33;;;;;;;14.97;11.50;;;15.70;99.90;;;;;;4999255;28;20426;-79
2021/10/09 11:20:01;;;;;;;14.60;10.60;;;15.70;99.90;;;;;;4998068;28;20814;-79
2021/10/09 11:22:39;;;;;;;15.97;12.50;;;15.70;99.90;;;;;;4998336;28;20951;-79
2021/10/09 11:25:09;;;;;;;14.57;9.37;;;15.70;99.90;;;;;;4997546;28;20903;-78
2021/10/09 11:27:38;;;;;;;18.40;11.00;;;15.80;99.90;;;;;;4999208;28;20444;-79
2021/10/09 11:30:07;;;;;;;14.73;10.77;;;15.80;99.90;;;;;;4999048;28;20539;-77
2021/10/09 11:32:35;;;;;;;14.40;9.97;;;15.90;99.90;;;;;;4998471;28;20452;-79
2021/10/09 11:35:03;;;;;;;14.60;11.10;;;15.90;99.90;;;;;;4997524;28;20542;-79
2021/10/09 11:37:30;;;;;;;17.70;11.10;;;16.00;99.90;;;;;;4997198;28;20423;-78
2021/10/09 11:40:00;;;;;;;21.53;10.40;;;16.00;99.90;;;;;;4995901;28;20509;-78
2021/10/09 11:42:30;;;;;;;22.03;7.53;;;16.10;99.90;;;;;;4997318;28;20486;-79
2021/10/09 11:45:08;;;;;;;14.43;10.87;;;16.10;99.90;;;;;;5008148;28;20444;-79
2021/10/09 11:56:14;;;;;;;16.17;11.00;;;16.10;99.90;;;;;;4955601;29;20412;-80
2021/10/09 11:58:53;;;;;;;15.60;10.73;;;16.20;99.90;;;;;;4953456;29;20440;-79
2021/10/09 12:01:32;;;;;;;13.53;10.80;;;16.20;99.90;;;;;;4983337;28;20566;-78
2021/10/09 12:04:17;;;;;;;13.93;10.50;;;16.30;99.90;;;;;;5009206;28;20471;-79
2021/10/09 12:06:45;;;;;;;14.90;9.53;;;16.20;99.90;;;;;;5005605;28;20430;-78
2021/10/09 12:09:15;;;;;;;15.23;11.13;;;16.30;99.90;;;;;;5004150;28;20495;-80
2021/10/09 12:11:42;;;;;;;17.67;11.33;;;16.30;99.90;;;;;;4982032;28;20592;-78
2021/10/09 12:14:11;;;;;;;14.47;10.17;;;16.40;99.90;;;;;;5001770;28;20499;-77
2021/10/09 12:16:42;;;;;;;14.60;10.40;;;16.40;99.90;;;;;;4991128;28;20416;-78
2021/10/09 12:19:10;;;;;;;18.33;10.47;;;16.40;99.90;;;;;;4978056;28;20454;-78
2021/10/09 12:21:39;;;;;;;15.70;9.43;;;16.50;99.90;;;;;;4980665;28;20475;-79
2021/10/09 12:24:14;;;;;;;15.70;12.07;;;16.50;99.90;;;;;;4981263;28;20552;-78
2021/10/09 12:26:41;;;;;;;14.20;11.30;;;16.30;99.90;;;;;;4991684;28;20466;-77
2021/10/09 12:29:12;;;;;;;14.67;10.40;;;16.40;99.90;;;;;;4990458;28;20458;-80
2021/10/09 12:31:43;;;;;;;12.33;9.90;;;16.40;99.90;;;;;;4983924;28;20560;-79
2021/10/09 12:34:34;;;;;;;16.67;10.77;;;16.50;99.90;;;;;;4996633;28;20507;-79
2021/10/09 12:37:23;;;;;;;17.23;10.13;;;16.40;99.90;;;;;;4993213;28;20423;-81
2021/10/09 12:40:12;;;;;;;13.63;10.10;;;16.50;99.90;;;;;;4996338;28;20518;-80
2021/10/09 12:42:42;;;;;;;14.70;11.10;;;16.50;99.90;;;;;;4996285;28;20471;-79
2021/10/09 12:45:11;;;;;;;13.30;10.80;;;16.60;99.90;;;;;;4997419;28;20524;-80
2021/10/09 12:47:38;;;;;;;16.23;10.77;;;16.70;99.90;;;;;;5000814;28;20453;-80
2021/10/09 12:50:05;;;;;;;13.13;10.90;;;16.80;99.90;;;;;;5000880;28;20603;-78
2021/10/09 12:52:32;;;;;;;15.77;11.63;;;16.80;99.90;;;;;;4996352;28;20448;-78
2021/10/09 12:55:02;;;;;;;15.53;11.43;;;16.80;99.90;;;;;;4996571;28;20538;-80
2021/10/09 12:57:29;;;;;;;15.23;9.40;;;16.90;99.90;;;;;;4998003;28;20457;-78
2021/10/09 12:59:55;;;;;;;18.70;11.00;;;16.90;99.10;;;;;;4997274;28;20511;-79
2021/10/09 13:02:24;;;;;;;13.07;10.10;;;16.80;99.60;;;;;;4995919;28;20495;-79
2021/10/09 13:04:50;;;;;;;14.23;10.47;;;16.80;99.40;;;;;;4996508;28;20984;-79
2021/10/09 13:07:18;;;;;;;16.40;11.03;;;16.90;99.60;;;;;;4989155;28;20946;-80
2021/10/09 13:09:46;;;;;;;18.27;12.80;;;17.00;99.60;;;;;;4996669;28;20877;-84
2021/10/09 13:12:15;;;;;;;16.73;10.30;;;16.90;99.60;;;;;;4997925;28;20455;-83
2021/10/09 13:14:42;;;;;;;15.67;10.27;;;17.00;99.10;;;;;;4996279;28;20458;-79
2021/10/09 13:17:09;;;;;;;13.53;10.77;;;17.00;99.30;;;;;;4997030;28;20456;-79
2021/10/09 13:19:37;;;;;;;14.40;10.90;;;16.90;99.80;;;;;;4992926;28;20961;-79
2021/10/09 13:22:04;;;;;;;14.73;11.83;;;17.00;99.70;;;;;;4996062;28;20438;-79
2021/10/09 13:24:31;;;;;;;14.57;11.00;;;16.90;99.50;;;;;;4996779;28;20451;-79
2021/10/09 13:26:58;;;;;;;14.43;11.10;;;16.80;99.80;;;;;;5000578;28;20465;-79
2021/10/09 13:29:24;;;;;;;14.97;11.07;;;16.80;99.80;;;;;;4999255;28;20498;-81
2021/10/09 13:31:51;;;;;;;14.67;10.27;;;16.80;99.60;;;;;;4997343;28;20479;-79
2021/10/09 13:34:18;;;;;;;17.00;10.40;;;17.00;99.10;;;;;;4996328;28;20430;-80
2021/10/09 13:36:48;;;;;;;13.43;9.23;;;17.00;99.10;;;;;;4991552;28;20572;-80
2021/10/09 13:39:14;;;;;;;13.80;11.13;;;17.10;98.80;;;;;;5000248;28;20441;-80
2021/10/09 13:41:41;;;;;;;13.90;10.70;;;17.00;99.40;;;;;;4997215;28;20485;-80
2021/10/09 13:44:08;;;;;;;12.90;11.03;;;17.00;99.00;;;;;;5011493;28;20474;-81
2021/10/09 13:46:37;;;;;;;12.80;9.20;;;16.90;99.00;;;;;;5001109;28;20529;-80
2021/10/09 13:49:04;;;;;;;14.60;10.43;;;17.00;98.50;;;;;;4999767;28;20468;-79
2021/10/09 13:51:31;;;;;;;12.80;10.40;;;16.90;98.60;;;;;;4992790;28;20490;-80
2021/10/09 13:53:59;;;;;;;13.10;10.20;;;16.90;98.60;;;;;;4997208;28;20501;-79
2021/10/09 13:56:26;;;;;;;12.70;10.23;;;16.80;98.70;;;;;;5005068;28;20428;-81
2021/10/09 13:58:53;;;;;;;13.93;10.67;;;16.90;98.90;;;;;;5000533;28;20444;-79
2021/10/09 14:01:20;;;;;;;13.10;8.03;;;17.00;98.70;;;;;;5017974;28;20553;-78
2021/10/09 14:03:47;;;;;;;12.90;8.93;;;17.10;98.00;;;;;;5009412;28;20494;-80
2021/10/09 14:06:14;;;;;;;15.93;12.07;;;17.10;98.10;;;;;;4997447;28;20461;-80
2021/10/09 14:08:41;;;;;;;14.20;11.10;;;17.10;98.40;;;;;;4989018;28;20536;-80
2021/10/09 14:11:09;;;;;;;12.67;10.30;;;17.10;98.40;;;;;;5000462;28;20468;-79
2021/10/09 14:13:36;;;;;;;12.97;10.30;;;17.00;98.30;;;;;;5003797;28;20510;-81
2021/10/09 14:16:03;;;;;;;13.27;9.40;;;17.00;98.50;;;;;;5001345;28;20437;-80
2021/10/09 14:18:29;;;;;;;13.67;11.00;;;17.10;98.10;;;;;;4999091;28;20452;-80
2021/10/09 14:20:57;;;;;;;10.97;8.53;;;17.10;98.40;;;;;;4999778;28;20559;-78
2021/10/09 14:23:28;;;;;;;18.73;11.93;;;17.20;97.60;;;;;;4999761;28;20481;-80
2021/10/09 14:25:58;;;;;;;17.20;11.10;;;17.10;97.90;;;;;;4994728;28;20442;-79
2021/10/09 14:28:26;;;;;;;14.67;10.13;;;17.10;97.70;;;;;;4999491;28;20458;-80
2021/10/09 14:30:53;;;;;;;12.83;10.00;;;17.20;97.70;;;;;;4998731;28;20862;-79
2021/10/09 14:33:20;;;;;;;15.03;11.23;;;17.10;98.00;;;;;;4998403;28;20513;-79
2021/10/09 14:35:47;;;;;;;12.57;9.20;;;17.10;98.20;;;;;;4996374;28;20962;-78
2021/10/09 14:38:14;;;;;;;14.13;10.43;;;17.10;98.30;;;;;;4997640;28;20509;-78
2021/10/09 14:40:43;;;;;;;12.70;8.83;;;17.10;98.10;;;;;;4980550;28;20468;-78
2021/10/09 14:43:10;;;;;;;15.20;9.00;;;17.30;97.70;;;;;;4995886;28;21023;-80